sensor_id;sensor_type;location;lat;lon;timestamp;pressure;altitude;pressure_sealevel;temperature;humidity
10946;BME280;5525;42.648;23.368;2023-08-31T00:01:32;94153.97;;;19.57;100.00
10946;BME280;5525;42.648;23.368;2023-08-31T00:03:59;94149.69;;;19.63;100.00
10946;BME280;5525;42.648;23.368;2023-08-31T00:06:26;94145.00;;;19.53;100.00
10946;BME280;5525;42.648;23.368;2023-08-31T00:08:52;94142.66;;;19.31;100.00
10946;BME280;5525;42.648;23.368;2023-08-31T00:11:19;94137.56;;;19.33;100.00
10946;BME280;5525;42.648;23.368;2023-08-31T00:13:46;94146.97;;;19.39;100.00
10946;BME280;5525;42.648;23.368;2023-08-31T00:16:14;94152.78;;;19.20;100.00
10946;BME280;5525;42.648;23.368;2023-08-31T00:18:41;94150.06;;;19.16;100.00
10946;BME280;5525;42.648;23.368;2023-08-31T00:21:07;94153.94;;;19.08;100.00
10946;BME280;5525;42.648;23.368;2023-08-31T00:23:35;94142.63;;;19.06;100.00
10946;BME280;5525;42.648;23.368;2023-08-31T00:26:02;94145.31;;;18.89;100.00
10946;BME280;5525;42.648;23.368;2023-08-31T00:28:28;94139.44;;;18.73;100.00
10946;BME280;5525;42.648;23.368;2023-08-31T00:30:55;94146.50;;;18.77;100.00
10946;BME280;5525;42.648;23.368;2023-08-31T00:33:25;94144.91;;;18.73;100.00
10946;BME280;5525;42.648;23.368;2023-08-31T00:35:52;94154.31;;;18.86;100.00
10946;BME280;5525;42.648;23.368;2023-08-31T00:38:21;94153.53;;;18.92;100.00
10946;BME280;5525;42.648;23.368;2023-08-31T00:40:48;94162.50;;;18.86;100.00
10946;BME280;5525;42.648;23.368;2023-08-31T00:43:15;94162.50;;;18.79;100.00
10946;BME280;5525;42.648;23.368;2023-08-31T00:45:44;94160.16;;;18.81;100.00
10946;BME280;5525;42.648;23.368;2023-08-31T00:48:11;94174.16;;;18.65;100.00
10946;BME280;5525;42.648;23.368;2023-08-31T00:50:39;94162.09;;;18.70;100.00
10946;BME280;5525;42.648;23.368;2023-08-31T00:53:07;94164.44;;;18.75;100.00
10946;BME280;5525;42.648;23.368;2023-08-31T00:55:34;94167.97;;;18.68;100.00
10946;BME280;5525;42.648;23.368;2023-08-31T00:58:01;94163.69;;;18.81;100.00
10946;BME280;5525;42.648;23.368;2023-08-31T01:00:36;94168.78;;;18.86;100.00
10946;BME280;5525;42.648;23.368;2023-08-31T01:03:12;94159.78;;;18.89;100.00
10946;BME280;5525;42.648;23.368;2023-08-31T01:05:46;94169.56;;;19.01;100.00
10946;BME280;5525;42.648;23.368;2023-08-31T01:08:24;94165.66;;;18.98;100.00
10946;BME280;5525;42.648;23.368;2023-08-31T01:11:00;94177.00;;;19.04;100.00
10946;BME280;5525;42.648;23.368;2023-08-31T01:13:31;94169.19;;;19.06;100.00
10946;BME280;5525;42.648;23.368;2023-08-31T01:16:00;94170.75;;;19.00;100.00
10946;BME280;5525;42.648;23.368;2023-08-31T01:18:30;94169.56;;;18.90;100.00
10946;BME280;5525;42.648;23.368;2023-08-31T01:21:08;94170.75;;;18.89;100.00
10946;BME280;5525;42.648;23.368;2023-08-31T01:23:53;94176.63;;;19.05;100.00
10946;BME280;5525;42.648;23.368;2023-08-31T01:26:20;94178.56;;;18.94;100.00
10946;BME280;5525;42.648;23.368;2023-08-31T01:28:47;94186.41;;;19.10;100.00
10946;BME280;5525;42.648;23.368;2023-08-31T01:31:15;94186.03;;;19.18;100.00
10946;BME280;5525;42.648;23.368;2023-08-31T01:33:42;94180.13;;;19.02;100.00
10946;BME280;5525;42.648;23.368;2023-08-31T01:36:14;94178.97;;;18.93;100.00
10946;BME280;5525;42.648;23.368;2023-08-31T01:38:45;94177.78;;;18.94;100.00
10946;BME280;5525;42.648;23.368;2023-08-31T01:41:17;94177.00;;;18.97;100.00
10946;BME280;5525;42.648;23.368;2023-08-31T01:43:47;94183.66;;;18.96;100.00
10946;BME280;5525;42.648;23.368;2023-08-31T01:46:15;94184.44;;;19.00;100.00
10946;BME280;5525;42.648;23.368;2023-08-31T01:48:42;94182.09;;;19.09;100.00
10946;BME280;5525;42.648;23.368;2023-08-31T01:51:10;94171.16;;;18.98;100.00
10946;BME280;5525;42.648;23.368;2023-08-31T01:53:36;94171.13;;;18.88;100.00
10946;BME280;5525;42.648;23.368;2023-08-31T01:56:04;94173.88;;;19.05;100.00
10946;BME280;5525;42.648;23.368;2023-08-31T01:58:32;94178.59;;;19.15;100.00
10946;BME280;5525;42.648;23.368;2023-08-31T02:00:59;94184.81;;;19.05;100.00
10946;BME280;5525;42.648;23.368;2023-08-31T02:03:25;94183.25;;;19.01;100.00
10946;BME280;5525;42.648;23.368;2023-08-31T02:05:52;94192.25;;;19.01;100.00
10946;BME280;5525;42.648;23.368;2023-08-31T02:08:19;94202.78;;;18.92;100.00
10946;BME280;5525;42.648;23.368;2023-08-31T02:10:46;94199.25;;;18.88;100.00
10946;BME280;5525;42.648;23.368;2023-08-31T02:13:14;94200.03;;;18.85;100.00
10946;BME280;5525;42.648;23.368;2023-08-31T02:15:42;94198.84;;;18.79;100.00
10946;BME280;5525;42.648;23.368;2023-08-31T02:18:09;94202.31;;;18.66;100.00
10946;BME280;5525;42.648;23.368;2023-08-31T02:20:35;94205.41;;;18.61;100.00
10946;BME280;5525;42.648;23.368;2023-08-31T02:23:02;94205.72;;;18.38;100.00
10946;BME280;5525;42.648;23.368;2023-08-31T02:25:29;94204.88;;;18.30;100.00
10946;BME280;5525;42.648;23.368;2023-08-31T02:27:56;94199.38;;;18.27;100.00
10946;BME280;5525;42.648;23.368;2023-08-31T02:30:22;94186.06;;;18.18;100.00
10946;BME280;5525;42.648;23.368;2023-08-31T02:32:50;94195.00;;;18.12;100.00
10946;BME280;5525;42.648;23.368;2023-08-31T02:35:17;94196.56;;;18.09;100.00
10946;BME280;5525;42.648;23.368;2023-08-31T02:37:44;94187.25;;;18.21;100.00
10946;BME280;5525;42.648;23.368;2023-08-31T02:40:11;94197.78;;;18.15;100.00
10946;BME280;5525;42.648;23.368;2023-08-31T02:42:38;94196.66;;;18.23;100.00
10946;BME280;5525;42.648;23.368;2023-08-31T02:45:06;94203.22;;;18.12;100.00
10946;BME280;5525;42.648;23.368;2023-08-31T02:47:32;94211.72;;;18.00;100.00
10946;BME280;5525;42.648;23.368;2023-08-31T02:50:02;94209.78;;;18.04;100.00
10946;BME280;5525;42.648;23.368;2023-08-31T02:52:28;94208.19;;;17.99;100.00
10946;BME280;5525;42.648;23.368;2023-08-31T02:54:55;94207.78;;;17.94;100.00
10946;BME280;5525;42.648;23.368;2023-08-31T02:57:22;94205.34;;;17.78;100.00
10946;BME280;5525;42.648;23.368;2023-08-31T02:59:51;94213.13;;;17.76;100.00
10946;BME280;5525;42.648;23.368;2023-08-31T03:02:18;94216.66;;;17.77;100.00
10946;BME280;5525;42.648;23.368;2023-08-31T03:04:45;94218.28;;;17.85;100.00
10946;BME280;5525;42.648;23.368;2023-08-31T03:07:13;94226.47;;;17.88;100.00
10946;BME280;5525;42.648;23.368;2023-08-31T03:09:40;94227.66;;;17.87;100.00
10946;BME280;5525;42.648;23.368;2023-08-31T03:12:07;94227.19;;;17.78;100.00
10946;BME280;5525;42.648;23.368;2023-08-31T03:14:34;94230.19;;;17.63;100.00
10946;BME280;5525;42.648;23.368;2023-08-31T03:17:00;94228.97;;;17.57;100.00
10946;BME280;5525;42.648;23.368;2023-08-31T03:19:27;94238.47;;;17.30;100.00
10946;BME280;5525;42.648;23.368;2023-08-31T03:21:54;94234.00;;;17.11;100.00
10946;BME280;5525;42.648;23.368;2023-08-31T03:24:22;94228.88;;;17.06;100.00
10946;BME280;5525;42.648;23.368;2023-08-31T03:26:48;94233.25;;;17.18;100.00
10946;BME280;5525;42.648;23.368;2023-08-31T03:29:15;94237.25;;;17.27;100.00
10946;BME280;5525;42.648;23.368;2023-08-31T03:31:42;94231.66;;;17.10;100.00
10946;BME280;5525;42.648;23.368;2023-08-31T03:34:08;94236.63;;;17.04;100.00
10946;BME280;5525;42.648;23.368;2023-08-31T03:36:35;94242.88;;;17.05;100.00
10946;BME280;5525;42.648;23.368;2023-08-31T03:39:03;94241.34;;;17.07;100.00
10946;BME280;5525;42.648;23.368;2023-08-31T03:41:31;94243.84;;;17.23;100.00
10946;BME280;5525;42.648;23.368;2023-08-31T03:43:58;94248.69;;;17.40;100.00
10946;BME280;5525;42.648;23.368;2023-08-31T03:46:24;94243.44;;;17.61;100.00
10946;BME280;5525;42.648;23.368;2023-08-31T03:48:52;94242.97;;;17.52;100.00
10946;BME280;5525;42.648;23.368;2023-08-31T03:51:18;94254.47;;;17.35;100.00
10946;BME280;5525;42.648;23.368;2023-08-31T03:53:45;94253.25;;;17.29;100.00
10946;BME280;5525;42.648;23.368;2023-08-31T03:56:12;94252.34;;;17.18;100.00
10946;BME280;5525;42.648;23.368;2023-08-31T03:58:40;94263.78;;;17.30;100.00
10946;BME280;5525;42.648;23.368;2023-08-31T04:01:07;94267.28;;;17.27;100.00
10946;BME280;5525;42.648;23.368;2023-08-31T04:03:35;94272.03;;;17.34;100.00
10946;BME280;5525;42.648;23.368;2023-08-31T04:06:02;94274.19;;;17.54;100.00
10946;BME280;5525;42.648;23.368;2023-08-31T04:08:30;94277.91;;;17.76;100.00
10946;BME280;5525;42.648;23.368;2023-08-31T04:10:57;94286.84;;;17.76;100.00
10946;BME280;5525;42.648;23.368;2023-08-31T04:13:23;94298.16;;;17.75;100.00
10946;BME280;5525;42.648;23.368;2023-08-31T04:15:52;94301.34;;;17.84;100.00
10946;BME280;5525;42.648;23.368;2023-08-31T04:18:19;94294.72;;;17.81;100.00
10946;BME280;5525;42.648;23.368;2023-08-31T04:20:50;94304.78;;;17.74;100.00
10946;BME280;5525;42.648;23.368;2023-08-31T04:25:44;94315.91;;;17.51;100.00
10946;BME280;5525;42.648;23.368;2023-08-31T04:28:10;94310.56;;;17.65;100.00
10946;BME280;5525;42.648;23.368;2023-08-31T04:30:38;94310.84;;;17.97;100.00
10946;BME280;5525;42.648;23.368;2023-08-31T04:33:07;94313.22;;;18.02;100.00
10946;BME280;5525;42.648;23.368;2023-08-31T04:35:34;94315.97;;;18.02;100.00
10946;BME280;5525;42.648;23.368;2023-08-31T04:38:00;94310.94;;;18.14;100.00
10946;BME280;5525;42.648;23.368;2023-08-31T04:40:27;94310.19;;;18.14;100.00
10946;BME280;5525;42.648;23.368;2023-08-31T04:42:54;94317.31;;;18.29;100.00
10946;BME280;5525;42.648;23.368;2023-08-31T04:45:21;94319.69;;;18.34;100.00
10946;BME280;5525;42.648;23.368;2023-08-31T04:47:48;94321.47;;;18.63;100.00
10946;BME280;5525;42.648;23.368;2023-08-31T04:50:17;94327.19;;;19.23;100.00
10946;BME280;5525;42.648;23.368;2023-08-31T04:52:44;94325.34;;;20.74;100.00
10946;BME280;5525;42.648;23.368;2023-08-31T04:55:13;94321.31;;;21.97;100.00
10946;BME280;5525;42.648;23.368;2023-08-31T04:57:39;94322.25;;;22.24;100.00
10946;BME280;5525;42.648;23.368;2023-08-31T05:00:07;94316.91;;;22.06;100.00
10946;BME280;5525;42.648;23.368;2023-08-31T05:02:35;94318.56;;;21.21;100.00
10946;BME280;5525;42.648;23.368;2023-08-31T05:05:03;94329.28;;;20.77;100.00
10946;BME280;5525;42.648;23.368;2023-08-31T05:07:31;94323.84;;;19.96;100.00
10946;BME280;5525;42.648;23.368;2023-08-31T05:09:58;94328.88;;;19.59;100.00
10946;BME280;5525;42.648;23.368;2023-08-31T05:12:25;94326.53;;;19.61;100.00
10946;BME280;5525;42.648;23.368;2023-08-31T05:14:51;94330.09;;;19.75;100.00
10946;BME280;5525;42.648;23.368;2023-08-31T05:17:18;94329.72;;;19.77;100.00
10946;BME280;5525;42.648;23.368;2023-08-31T05:19:45;94331.66;;;19.76;100.00
10946;BME280;5525;42.648;23.368;2023-08-31T05:22:12;94335.19;;;19.87;100.00
10946;BME280;5525;42.648;23.368;2023-08-31T05:24:40;94331.69;;;19.90;100.00
10946;BME280;5525;42.648;23.368;2023-08-31T05:27:07;94327.38;;;19.96;100.00
10946;BME280;5525;42.648;23.368;2023-08-31T05:29:34;94338.00;;;20.16;100.00
10946;BME280;5525;42.648;23.368;2023-08-31T05:32:00;94329.31;;;19.82;100.00
10946;BME280;5525;42.648;23.368;2023-08-31T05:34:28;94330.91;;;20.04;100.00
10946;BME280;5525;42.648;23.368;2023-08-31T05:36:56;94324.28;;;20.26;100.00
10946;BME280;5525;42.648;23.368;2023-08-31T05:39:22;94323.50;;;20.33;100.00
10946;BME280;5525;42.648;23.368;2023-08-31T05:41:50;94330.13;;;20.46;100.00
10946;BME280;5525;42.648;23.368;2023-08-31T05:44:17;94333.25;;;20.48;100.00
10946;BME280;5525;42.648;23.368;2023-08-31T05:46:44;94335.59;;;20.60;100.00
10946;BME280;5525;42.648;23.368;2023-08-31T05:49:11;94334.78;;;20.77;100.00
10946;BME280;5525;42.648;23.368;2023-08-31T05:51:37;94331.59;;;20.92;100.00
10946;BME280;5525;42.648;23.368;2023-08-31T05:54:04;94341.78;;;21.09;100.00
10946;BME280;5525;42.648;23.368;2023-08-31T05:56:35;94339.00;;;21.13;100.00
10946;BME280;5525;42.648;23.368;2023-08-31T05:59:03;94336.53;;;21.43;100.00
10946;BME280;5525;42.648;23.368;2023-08-31T06:01:30;94329.03;;;21.50;100.00
10946;BME280;5525;42.648;23.368;2023-08-31T06:03:57;94333.38;;;21.48;100.00
10946;BME280;5525;42.648;23.368;2023-08-31T06:06:24;94335.19;;;21.76;100.00
10946;BME280;5525;42.648;23.368;2023-08-31T06:08:50;94344.94;;;21.84;100.00
10946;BME280;5525;42.648;23.368;2023-08-31T06:11:19;94355.53;;;21.85;100.00
10946;BME280;5525;42.648;23.368;2023-08-31T06:13:45;94356.25;;;22.00;100.00
10946;BME280;5525;42.648;23.368;2023-08-31T06:16:13;94355.50;;;23.88;100.00
10946;BME280;5525;42.648;23.368;2023-08-31T06:18:40;94359.38;;;27.23;92.88
10946;BME280;5525;42.648;23.368;2023-08-31T06:21:07;94362.22;;;30.05;71.03
10946;BME280;5525;42.648;23.368;2023-08-31T06:23:34;94376.78;;;31.18;58.58
10946;BME280;5525;42.648;23.368;2023-08-31T06:26:01;94382.97;;;32.40;50.60
10946;BME280;5525;42.648;23.368;2023-08-31T06:28:28;94386.34;;;32.95;48.82
10946;BME280;5525;42.648;23.368;2023-08-31T06:30:55;94393.50;;;32.87;47.03
10946;BME280;5525;42.648;23.368;2023-08-31T06:33:23;94395.69;;;33.48;44.93
10946;BME280;5525;42.648;23.368;2023-08-31T06:35:50;94407.84;;;33.68;43.83
10946;BME280;5525;42.648;23.368;2023-08-31T06:38:17;94403.69;;;33.78;42.10
10946;BME280;5525;42.648;23.368;2023-08-31T06:40:44;94407.47;;;33.28;42.65
10946;BME280;5525;42.648;23.368;2023-08-31T06:43:11;94407.38;;;33.84;41.08
10946;BME280;5525;42.648;23.368;2023-08-31T06:45:37;94420.91;;;35.11;38.23
10946;BME280;5525;42.648;23.368;2023-08-31T06:48:05;94412.53;;;35.31;37.70
10946;BME280;5525;42.648;23.368;2023-08-31T06:50:34;94410.53;;;35.92;36.22
10946;BME280;5525;42.648;23.368;2023-08-31T06:53:01;94414.66;;;36.68;34.56
10946;BME280;5525;42.648;23.368;2023-08-31T06:55:28;94428.63;;;38.62;30.77
10946;BME280;5525;42.648;23.368;2023-08-31T06:57:57;94433.53;;;38.78;30.17
10946;BME280;5525;42.648;23.368;2023-08-31T07:00:24;94431.97;;;38.71;30.50
10946;BME280;5525;42.648;23.368;2023-08-31T07:02:50;94428.88;;;38.75;29.87
10946;BME280;5525;42.648;23.368;2023-08-31T07:05:18;94421.47;;;36.56;32.08
10946;BME280;5525;42.648;23.368;2023-08-31T07:07:52;94421.50;;;36.10;33.14
10946;BME280;5525;42.648;23.368;2023-08-31T07:10:19;94438.13;;;38.98;29.35
10946;BME280;5525;42.648;23.368;2023-08-31T07:12:46;94427.59;;;38.70;29.70
10946;BME280;5525;42.648;23.368;2023-08-31T07:15:13;94435.06;;;39.34;28.55
10946;BME280;5525;42.648;23.368;2023-08-31T07:17:42;94432.78;;;39.00;28.79
10946;BME280;5525;42.648;23.368;2023-08-31T07:20:10;94448.09;;;39.76;28.10
10946;BME280;5525;42.648;23.368;2023-08-31T07:22:37;94447.66;;;39.11;28.50
10946;BME280;5525;42.648;23.368;2023-08-31T07:25:07;94440.53;;;41.04;26.72
10946;BME280;5525;42.648;23.368;2023-08-31T07:27:34;94440.91;;;40.49;27.26
10946;BME280;5525;42.648;23.368;2023-08-31T07:30:01;94446.28;;;39.95;26.83
10946;BME280;5525;42.648;23.368;2023-08-31T07:32:28;94446.34;;;41.22;25.86
10946;BME280;5525;42.648;23.368;2023-08-31T07:34:55;94452.81;;;40.36;26.47
10946;BME280;5525;42.648;23.368;2023-08-31T07:37:21;94440.91;;;41.54;25.20
10946;BME280;5525;42.648;23.368;2023-08-31T07:39:48;94441.69;;;41.78;24.72
10946;BME280;5525;42.648;23.368;2023-08-31T07:42:16;94441.44;;;39.73;26.25
10946;BME280;5525;42.648;23.368;2023-08-31T07:44:43;94444.03;;;41.21;24.99
10946;BME280;5525;42.648;23.368;2023-08-31T07:47:09;94445.59;;;39.39;26.47
10946;BME280;5525;42.648;23.368;2023-08-31T07:49:36;94440.56;;;40.11;25.81
10946;BME280;5525;42.648;23.368;2023-08-31T07:52:03;94449.59;;;42.71;23.42
10946;BME280;5525;42.648;23.368;2023-08-31T07:54:30;94444.06;;;40.80;25.29
10946;BME280;5525;42.648;23.368;2023-08-31T07:56:57;94447.63;;;40.86;25.09
10946;BME280;5525;42.648;23.368;2023-08-31T07:59:25;94443.81;;;41.43;23.99
10946;BME280;5525;42.648;23.368;2023-08-31T08:01:52;94443.78;;;40.84;24.70
10946;BME280;5525;42.648;23.368;2023-08-31T08:04:19;94451.94;;;41.28;24.24
10946;BME280;5525;42.648;23.368;2023-08-31T08:06:45;94447.28;;;41.60;24.52
10946;BME280;5525;42.648;23.368;2023-08-31T08:09:12;94445.06;;;42.99;22.25
10946;BME280;5525;42.648;23.368;2023-08-31T08:11:39;94445.91;;;42.57;22.80
10946;BME280;5525;42.648;23.368;2023-08-31T08:14:07;94446.00;;;42.52;23.09
10946;BME280;5525;42.648;23.368;2023-08-31T08:16:35;94451.06;;;42.59;22.82
10946;BME280;5525;42.648;23.368;2023-08-31T08:19:02;94442.25;;;39.57;25.78
10946;BME280;5525;42.648;23.368;2023-08-31T08:21:28;94448.75;;;41.13;24.47
10946;BME280;5525;42.648;23.368;2023-08-31T08:23:55;94439.31;;;41.58;23.95
10946;BME280;5525;42.648;23.368;2023-08-31T08:26:22;94445.47;;;42.53;21.42
10946;BME280;5525;42.648;23.368;2023-08-31T08:28:48;94443.31;;;42.41;19.58
10946;BME280;5525;42.648;23.368;2023-08-31T08:31:15;94437.47;;;41.02;19.37
10946;BME280;5525;42.648;23.368;2023-08-31T08:33:43;94428.53;;;39.89;20.58
10946;BME280;5525;42.648;23.368;2023-08-31T08:36:10;94430.47;;;39.04;21.62
10946;BME280;5525;42.648;23.368;2023-08-31T08:38:37;94438.84;;;39.81;21.11
10946;BME280;5525;42.648;23.368;2023-08-31T08:41:07;94431.63;;;39.80;21.30
10946;BME280;5525;42.648;23.368;2023-08-31T08:43:34;94434.59;;;40.15;20.78
10946;BME280;5525;42.648;23.368;2023-08-31T08:46:05;94431.22;;;38.99;21.87
10946;BME280;5525;42.648;23.368;2023-08-31T08:48:32;94416.97;;;38.27;22.18
10946;BME280;5525;42.648;23.368;2023-08-31T08:51:02;94428.66;;;39.28;21.96
10946;BME280;5525;42.648;23.368;2023-08-31T08:53:29;94433.00;;;38.85;22.11
10946;BME280;5525;42.648;23.368;2023-08-31T08:55:56;94437.78;;;39.95;21.34
10946;BME280;5525;42.648;23.368;2023-08-31T08:58:23;94428.13;;;39.08;21.78
10946;BME280;5525;42.648;23.368;2023-08-31T09:00:51;94418.88;;;39.18;22.23
10946;BME280;5525;42.648;23.368;2023-08-31T09:03:18;94412.72;;;38.92;21.76
10946;BME280;5525;42.648;23.368;2023-08-31T09:05:45;94412.28;;;40.06;20.91
10946;BME280;5525;42.648;23.368;2023-08-31T09:08:13;94416.44;;;40.92;20.55
10946;BME280;5525;42.648;23.368;2023-08-31T09:10:42;94416.91;;;40.55;20.82
10946;BME280;5525;42.648;23.368;2023-08-31T09:13:11;94413.50;;;38.93;21.77
10946;BME280;5525;42.648;23.368;2023-08-31T09:15:43;94410.97;;;40.12;20.40
10946;BME280;5525;42.648;23.368;2023-08-31T09:18:15;94409.88;;;40.27;20.53
10946;BME280;5525;42.648;23.368;2023-08-31T09:20:46;94408.59;;;41.87;19.31
10946;BME280;5525;42.648;23.368;2023-08-31T09:23:15;94410.53;;;40.49;19.63
10946;BME280;5525;42.648;23.368;2023-08-31T09:25:43;94406.56;;;38.88;21.02
10946;BME280;5525;42.648;23.368;2023-08-31T09:28:11;94418.66;;;39.16;21.18
10946;BME280;5525;42.648;23.368;2023-08-31T09:30:38;94416.59;;;40.18;20.30
10946;BME280;5525;42.648;23.368;2023-08-31T09:33:06;94420.19;;;41.05;19.34
10946;BME280;5525;42.648;23.368;2023-08-31T09:35:34;94414.16;;;38.32;22.02
10946;BME280;5525;42.648;23.368;2023-08-31T09:38:01;94414.88;;;39.98;20.75
10946;BME280;5525;42.648;23.368;2023-08-31T09:40:29;94400.69;;;41.26;20.40
10946;BME280;5525;42.648;23.368;2023-08-31T09:42:56;94410.97;;;40.99;20.47
10946;BME280;5525;42.648;23.368;2023-08-31T09:45:25;94415.69;;;39.77;20.73
10946;BME280;5525;42.648;23.368;2023-08-31T09:47:55;94409.38;;;38.88;21.34
10946;BME280;5525;42.648;23.368;2023-08-31T09:50:23;94394.19;;;34.38;23.68
10946;BME280;5525;42.648;23.368;2023-08-31T09:52:52;94394.47;;;32.42;26.36
10946;BME280;5525;42.648;23.368;2023-08-31T09:55:21;94398.03;;;34.40;24.64
10946;BME280;5525;42.648;23.368;2023-08-31T09:57:52;94394.78;;;36.00;23.23
10946;BME280;5525;42.648;23.368;2023-08-31T10:00:21;94390.19;;;35.22;23.89
10946;BME280;5525;42.648;23.368;2023-08-31T10:02:49;94389.72;;;31.79;28.35
10946;BME280;5525;42.648;23.368;2023-08-31T10:05:15;94385.66;;;30.16;30.76
10946;BME280;5525;42.648;23.368;2023-08-31T10:07:42;94376.75;;;28.97;33.58
10946;BME280;5525;42.648;23.368;2023-08-31T10:10:10;94374.91;;;28.44;35.21
10946;BME280;5525;42.648;23.368;2023-08-31T10:12:38;94377.03;;;30.84;32.26
10946;BME280;5525;42.648;23.368;2023-08-31T10:15:08;94387.25;;;33.01;29.23
10946;BME280;5525;42.648;23.368;2023-08-31T10:17:36;94385.03;;;31.49;30.45
10946;BME280;5525;42.648;23.368;2023-08-31T10:20:03;94388.69;;;32.96;29.24
10946;BME280;5525;42.648;23.368;2023-08-31T10:22:31;94384.31;;;34.42;27.25
10946;BME280;5525;42.648;23.368;2023-08-31T10:24:58;94389.59;;;35.18;26.00
10946;BME280;5525;42.648;23.368;2023-08-31T10:27:27;94393.28;;;33.79;26.87
10946;BME280;5525;42.648;23.368;2023-08-31T10:29:54;94388.84;;;34.54;26.02
10946;BME280;5525;42.648;23.368;2023-08-31T10:32:22;94386.00;;;33.72;26.83
10946;BME280;5525;42.648;23.368;2023-08-31T10:35:07;94379.22;;;30.98;28.95
10946;BME280;5525;42.648;23.368;2023-08-31T10:37:34;94385.03;;;29.91;31.10
10946;BME280;5525;42.648;23.368;2023-08-31T10:40:07;94381.25;;;28.70;32.79
10946;BME280;5525;42.648;23.368;2023-08-31T10:42:44;94388.44;;;28.30;34.03
10946;BME280;5525;42.648;23.368;2023-08-31T10:45:11;94382.66;;;28.12;34.84
10946;BME280;5525;42.648;23.368;2023-08-31T10:47:40;94389.06;;;27.96;35.17
10946;BME280;5525;42.648;23.368;2023-08-31T10:50:19;94387.94;;;28.72;34.49
10946;BME280;5525;42.648;23.368;2023-08-31T10:52:46;94385.56;;;28.83;34.54
10946;BME280;5525;42.648;23.368;2023-08-31T10:55:13;94390.97;;;30.02;32.49
10946;BME280;5525;42.648;23.368;2023-08-31T10:57:40;94395.84;;;30.71;31.33
10946;BME280;5525;42.648;23.368;2023-08-31T11:00:08;94391.53;;;32.78;29.78
10946;BME280;5525;42.648;23.368;2023-08-31T11:02:41;94403.44;;;34.73;27.63
10946;BME280;5525;42.648;23.368;2023-08-31T11:05:10;94409.28;;;32.75;28.87
10946;BME280;5525;42.648;23.368;2023-08-31T11:07:37;94392.06;;;30.87;30.34
10946;BME280;5525;42.648;23.368;2023-08-31T11:10:14;94403.91;;;30.39;31.61
10946;BME280;5525;42.648;23.368;2023-08-31T11:12:43;94399.97;;;30.58;32.07
10946;BME280;5525;42.648;23.368;2023-08-31T11:15:12;94397.78;;;30.53;31.73
10946;BME280;5525;42.648;23.368;2023-08-31T11:17:41;94396.97;;;33.14;28.94
10946;BME280;5525;42.648;23.368;2023-08-31T11:20:09;94397.94;;;34.64;27.21
10946;BME280;5525;42.648;23.368;2023-08-31T11:22:38;94396.25;;;33.05;27.72
10946;BME280;5525;42.648;23.368;2023-08-31T11:25:06;94382.09;;;31.71;29.95
10946;BME280;5525;42.648;23.368;2023-08-31T11:27:33;94388.47;;;31.53;30.64
10946;BME280;5525;42.648;23.368;2023-08-31T11:30:00;94390.25;;;33.68;28.52
10946;BME280;5525;42.648;23.368;2023-08-31T11:32:27;94396.09;;;34.46;27.55
10946;BME280;5525;42.648;23.368;2023-08-31T11:34:55;94404.13;;;33.15;29.52
10946;BME280;5525;42.648;23.368;2023-08-31T11:37:21;94391.56;;;32.00;30.76
10946;BME280;5525;42.648;23.368;2023-08-31T11:39:49;94382.25;;;30.12;33.09
10946;BME280;5525;42.648;23.368;2023-08-31T11:42:17;94397.44;;;29.99;33.28
10946;BME280;5525;42.648;23.368;2023-08-31T11:44:46;94391.47;;;30.92;33.29
10946;BME280;5525;42.648;23.368;2023-08-31T11:47:13;94383.41;;;32.56;30.73
10946;BME280;5525;42.648;23.368;2023-08-31T11:49:41;94376.94;;;32.23;30.87
10946;BME280;5525;42.648;23.368;2023-08-31T11:52:11;94384.72;;;33.97;28.67
10946;BME280;5525;42.648;23.368;2023-08-31T11:54:38;94370.69;;;33.44;28.82
10946;BME280;5525;42.648;23.368;2023-08-31T11:57:07;94381.34;;;31.97;31.56
10946;BME280;5525;42.648;23.368;2023-08-31T11:59:34;94386.72;;;31.20;33.76
10946;BME280;5525;42.648;23.368;2023-08-31T12:02:01;94386.06;;;30.67;34.66
10946;BME280;5525;42.648;23.368;2023-08-31T12:04:28;94375.09;;;30.72;35.15
10946;BME280;5525;42.648;23.368;2023-08-31T12:07:01;94376.22;;;31.42;34.91
10946;BME280;5525;42.648;23.368;2023-08-31T12:09:31;94380.25;;;31.59;33.76
10946;BME280;5525;42.648;23.368;2023-08-31T12:11:58;94379.28;;;31.26;34.03
10946;BME280;5525;42.648;23.368;2023-08-31T12:14:26;94386.09;;;30.15;35.73
10946;BME280;5525;42.648;23.368;2023-08-31T12:17:00;94376.16;;;31.05;34.51
10946;BME280;5525;42.648;23.368;2023-08-31T12:19:28;94370.38;;;30.91;35.01
10946;BME280;5525;42.648;23.368;2023-08-31T12:21:57;94368.84;;;30.59;36.06
10946;BME280;5525;42.648;23.368;2023-08-31T12:24:24;94358.34;;;31.12;35.77
10946;BME280;5525;42.648;23.368;2023-08-31T12:26:52;94365.91;;;30.93;36.18
10946;BME280;5525;42.648;23.368;2023-08-31T12:29:20;94359.41;;;30.26;36.24
10946;BME280;5525;42.648;23.368;2023-08-31T12:31:47;94368.00;;;29.89;36.80
10946;BME280;5525;42.648;23.368;2023-08-31T12:34:15;94362.34;;;29.58;37.74
10946;BME280;5525;42.648;23.368;2023-08-31T12:36:42;94369.75;;;29.18;38.67
10946;BME280;5525;42.648;23.368;2023-08-31T12:39:09;94366.47;;;29.66;38.87
10946;BME280;5525;42.648;23.368;2023-08-31T12:41:37;94364.06;;;30.08;37.52
10946;BME280;5525;42.648;23.368;2023-08-31T12:44:06;94365.56;;;29.91;37.01
10946;BME280;5525;42.648;23.368;2023-08-31T12:46:33;94363.13;;;30.02;37.52
10946;BME280;5525;42.648;23.368;2023-08-31T12:49:00;94363.75;;;29.07;39.43
10946;BME280;5525;42.648;23.368;2023-08-31T12:51:28;94365.75;;;29.06;39.99
10946;BME280;5525;42.648;23.368;2023-08-31T12:53:55;94355.16;;;28.55;40.39
10946;BME280;5525;42.648;23.368;2023-08-31T12:56:21;94361.78;;;28.07;42.06
10946;BME280;5525;42.648;23.368;2023-08-31T12:58:49;94366.22;;;27.92;42.73
10946;BME280;5525;42.648;23.368;2023-08-31T13:01:19;94353.72;;;27.43;44.01